sensor_id;sensor_type;location;lat;lon;timestamp;pressure;altitude;pressure_sealevel;temperature;humidity
25947;BME280;13745;51.470;9.894;2024-03-22T00:00:55;99890.03;;;8.75;75.21
25947;BME280;13745;51.470;9.894;2024-03-22T00:03:40;99877.13;;;8.70;75.71
25947;BME280;13745;51.470;9.894;2024-03-22T00:06:24;99878.84;;;8.69;75.19
25947;BME280;13745;51.470;9.894;2024-03-22T00:09:10;99875.38;;;8.66;76.00
25947;BME280;13745;51.470;9.894;2024-03-22T00:11:54;99868.47;;;8.56;75.86
25947;BME280;13745;51.470;9.894;2024-03-22T00:14:39;99872.72;;;8.49;75.83
25947;BME280;13745;51.470;9.894;2024-03-22T00:17:25;99870.16;;;8.44;75.71
25947;BME280;13745;51.470;9.894;2024-03-22T00:20:10;99866.69;;;8.41;76.36
25947;BME280;13745;51.470;9.894;2024-03-22T00:22:55;99861.53;;;8.39;76.24
25947;BME280;13745;51.470;9.894;2024-03-22T00:25:40;99854.63;;;8.41;76.10
25947;BME280;13745;51.470;9.894;2024-03-22T00:28:24;99851.19;;;8.42;76.34
25947;BME280;13745;51.470;9.894;2024-03-22T00:31:09;99851.22;;;8.46;76.27
25947;BME280;13745;51.470;9.894;2024-03-22T00:33:55;99845.19;;;8.48;76.44
25947;BME280;13745;51.470;9.894;2024-03-22T00:36:40;99848.66;;;8.55;76.57
25947;BME280;13745;51.470;9.894;2024-03-22T00:39:24;99846.91;;;8.58;76.16
25947;BME280;13745;51.470;9.894;2024-03-22T00:42:09;99840.91;;;8.61;76.43
25947;BME280;13745;51.470;9.894;2024-03-22T00:44:54;99840.06;;;8.65;75.91
25947;BME280;13745;51.470;9.894;2024-03-22T00:47:40;99838.31;;;8.67;75.86
25947;BME280;13745;51.470;9.894;2024-03-22T00:50:25;99840.03;;;8.68;76.41
25947;BME280;13745;51.470;9.894;2024-03-22T00:53:11;99833.16;;;8.67;76.06
25947;BME280;13745;51.470;9.894;2024-03-22T00:55:56;99831.44;;;8.63;76.20
25947;BME280;13745;51.470;9.894;2024-03-22T00:58:43;99830.56;;;8.56;76.64
25947;BME280;13745;51.470;9.894;2024-03-22T01:01:27;99839.16;;;8.52;76.58
25947;BME280;13745;51.470;9.894;2024-03-22T01:04:12;99821.06;;;8.46;76.59
25947;BME280;13745;51.470;9.894;2024-03-22T01:06:57;99827.06;;;8.42;76.52
25947;BME280;13745;51.470;9.894;2024-03-22T01:09:42;99818.47;;;8.40;77.05
25947;BME280;13745;51.470;9.894;2024-03-22T01:12:28;99816.75;;;8.36;76.69
25947;BME280;13745;51.470;9.894;2024-03-22T01:15:13;99827.03;;;8.33;76.81
25947;BME280;13745;51.470;9.894;2024-03-22T01:17:58;99813.25;;;8.29;76.64
25947;BME280;13745;51.470;9.894;2024-03-22T01:20:43;99829.56;;;8.25;77.25
25947;BME280;13745;51.470;9.894;2024-03-22T01:23:30;99815.78;;;8.17;77.43
25947;BME280;13745;51.470;9.894;2024-03-22T01:26:14;99818.38;;;8.15;77.16
25947;BME280;13745;51.470;9.894;2024-03-22T01:28:59;99809.75;;;8.13;77.65
25947;BME280;13745;51.470;9.894;2024-03-22T01:31:44;99812.34;;;8.12;77.20
25947;BME280;13745;51.470;9.894;2024-03-22T01:34:29;99805.47;;;8.11;77.14
25947;BME280;13745;51.470;9.894;2024-03-22T01:37:13;99814.91;;;8.13;77.60
25947;BME280;13745;51.470;9.894;2024-03-22T01:40:00;99814.91;;;8.13;77.28
25947;BME280;13745;51.470;9.894;2024-03-22T01:42:44;99816.63;;;8.14;77.38
25947;BME280;13745;51.470;9.894;2024-03-22T01:45:32;99808.03;;;8.15;78.05
25947;BME280;13745;51.470;9.894;2024-03-22T01:48:16;99808.03;;;8.17;77.44
25947;BME280;13745;51.470;9.894;2024-03-22T01:51:02;99809.75;;;8.18;77.40
25947;BME280;13745;51.470;9.894;2024-03-22T01:53:49;99814.06;;;8.19;77.57
25947;BME280;13745;51.470;9.894;2024-03-22T01:56:36;99806.31;;;8.16;78.16
25947;BME280;13745;51.470;9.894;2024-03-22T01:59:23;99804.59;;;8.16;77.88
25947;BME280;13745;51.470;9.894;2024-03-22T02:02:08;99795.97;;;8.16;77.61
25947;BME280;13745;51.470;9.894;2024-03-22T02:04:56;99794.25;;;8.16;78.35
25947;BME280;13745;51.470;9.894;2024-03-22T02:07:40;99795.13;;;8.18;77.80
25947;BME280;13745;51.470;9.894;2024-03-22T02:10:26;99783.97;;;8.20;78.31
25947;BME280;13745;51.470;9.894;2024-03-22T02:13:11;99771.06;;;8.20;78.49
25947;BME280;13745;51.470;9.894;2024-03-22T02:15:56;99756.41;;;8.22;78.54
25947;BME280;13745;51.470;9.894;2024-03-22T02:18:41;99754.69;;;8.24;78.56
25947;BME280;13745;51.470;9.894;2024-03-22T02:21:26;99745.22;;;8.24;78.43
25947;BME280;13745;51.470;9.894;2024-03-22T02:24:11;99739.19;;;8.24;78.29
25947;BME280;13745;51.470;9.894;2024-03-22T02:26:56;99728.03;;;8.28;78.01
25947;BME280;13745;51.470;9.894;2024-03-22T02:29:40;99734.91;;;8.30;78.10
25947;BME280;13745;51.470;9.894;2024-03-22T02:32:25;99729.75;;;8.32;78.28
25947;BME280;13745;51.470;9.894;2024-03-22T02:35:10;99721.13;;;8.34;78.15
25947;BME280;13745;51.470;9.894;2024-03-22T02:37:55;99716.00;;;8.39;78.28
25947;BME280;13745;51.470;9.894;2024-03-22T02:40:44;99708.28;;;8.39;78.63
25947;BME280;13745;51.470;9.894;2024-03-22T02:43:29;99716.03;;;8.37;78.71
25947;BME280;13745;51.470;9.894;2024-03-22T02:46:13;99710.81;;;8.34;78.51
25947;BME280;13745;51.470;9.894;2024-03-22T02:48:58;99719.41;;;8.32;78.97
25947;BME280;13745;51.470;9.894;2024-03-22T02:51:42;99715.09;;;8.32;78.60
25947;BME280;13745;51.470;9.894;2024-03-22T02:54:27;99722.88;;;8.35;79.02
25947;BME280;13745;51.470;9.894;2024-03-22T02:57:13;99716.88;;;8.36;78.61
25947;BME280;13745;51.470;9.894;2024-03-22T02:59:59;99712.56;;;8.38;79.08
25947;BME280;13745;51.470;9.894;2024-03-22T03:02:45;99715.16;;;8.37;79.18
25947;BME280;13745;51.470;9.894;2024-03-22T03:05:30;99718.59;;;8.36;78.60
25947;BME280;13745;51.470;9.894;2024-03-22T03:08:14;99719.44;;;8.35;78.73
25947;BME280;13745;51.470;9.894;2024-03-22T03:10:59;99707.41;;;8.37;78.75
25947;BME280;13745;51.470;9.894;2024-03-22T03:13:44;99700.53;;;8.37;79.27
25947;BME280;13745;51.470;9.894;2024-03-22T03:16:29;99690.19;;;8.39;78.92
25947;BME280;13745;51.470;9.894;2024-03-22T03:19:14;99690.19;;;8.37;79.01
25947;BME280;13745;51.470;9.894;2024-03-22T03:21:59;99681.56;;;8.35;78.86
25947;BME280;13745;51.470;9.894;2024-03-22T03:24:43;99677.22;;;8.34;78.94
25947;BME280;13745;51.470;9.894;2024-03-22T03:27:29;99672.06;;;8.34;79.39
25947;BME280;13745;51.470;9.894;2024-03-22T03:30:14;99665.19;;;8.33;79.69
25947;BME280;13745;51.470;9.894;2024-03-22T03:32:59;99663.44;;;8.34;79.75
25947;BME280;13745;51.470;9.894;2024-03-22T03:35:45;99659.16;;;8.34;79.46
25947;BME280;13745;51.470;9.894;2024-03-22T03:38:30;99660.06;;;8.36;79.48
25947;BME280;13745;51.470;9.894;2024-03-22T03:41:14;99655.72;;;8.35;79.95
25947;BME280;13745;51.470;9.894;2024-03-22T03:43:59;99652.31;;;8.36;79.59
25947;BME280;13745;51.470;9.894;2024-03-22T03:46:45;99659.19;;;8.37;79.65
25947;BME280;13745;51.470;9.894;2024-03-22T03:49:30;99654.03;;;8.39;79.99
25947;BME280;13745;51.470;9.894;2024-03-22T03:52:14;99648.00;;;8.40;79.93
25947;BME280;13745;51.470;9.894;2024-03-22T03:54:59;99650.59;;;8.40;80.26
25947;BME280;13745;51.470;9.894;2024-03-22T03:57:43;99632.50;;;8.43;80.04
25947;BME280;13745;51.470;9.894;2024-03-22T04:00:29;99629.91;;;8.48;80.35
25947;BME280;13745;51.470;9.894;2024-03-22T04:03:15;99630.75;;;8.51;80.07
25947;BME280;13745;51.470;9.894;2024-03-22T04:06:01;99622.16;;;8.54;80.14
25947;BME280;13745;51.470;9.894;2024-03-22T04:08:45;99620.44;;;8.57;79.91
25947;BME280;13745;51.470;9.894;2024-03-22T04:11:33;99628.16;;;8.63;79.94
25947;BME280;13745;51.470;9.894;2024-03-22T04:14:16;99612.66;;;8.63;80.27
25947;BME280;13745;51.470;9.894;2024-03-22T04:17:02;99618.69;;;8.64;80.11
25947;BME280;13745;51.470;9.894;2024-03-22T04:19:49;99627.28;;;8.67;80.05
25947;BME280;13745;51.470;9.894;2024-03-22T04:22:34;99618.69;;;8.71;80.23
25947;BME280;13745;51.470;9.894;2024-03-22T04:25:18;99619.53;;;8.73;80.18
25947;BME280;13745;51.470;9.894;2024-03-22T04:28:03;99624.69;;;8.77;80.00
25947;BME280;13745;51.470;9.894;2024-03-22T04:30:55;99619.53;;;8.78;80.35
25947;BME280;13745;51.470;9.894;2024-03-22T04:33:41;99611.78;;;8.80;80.15
25947;BME280;13745;51.470;9.894;2024-03-22T04:36:26;99606.59;;;8.81;79.95
25947;BME280;13745;51.470;9.894;2024-03-22T04:39:12;99604.88;;;8.82;80.49
25947;BME280;13745;51.470;9.894;2024-03-22T04:41:57;99603.13;;;8.84;80.73
25947;BME280;13745;51.470;9.894;2024-03-22T04:44:41;99599.69;;;8.86;80.17
25947;BME280;13745;51.470;9.894;2024-03-22T04:47:27;99605.72;;;8.88;80.11
25947;BME280;13745;51.470;9.894;2024-03-22T04:50:11;99588.47;;;8.84;80.74
25947;BME280;13745;51.470;9.894;2024-03-22T04:52:58;99597.97;;;8.82;80.51
25947;BME280;13745;51.470;9.894;2024-03-22T04:55:43;99592.81;;;8.81;80.43
25947;BME280;13745;51.470;9.894;2024-03-22T04:58:29;99589.38;;;8.80;80.78
25947;BME280;13745;51.470;9.894;2024-03-22T05:01:14;99588.50;;;8.83;81.10
25947;BME280;13745;51.470;9.894;2024-03-22T05:03:58;99585.06;;;8.82;81.22
25947;BME280;13745;51.470;9.894;2024-03-22T05:06:43;99590.19;;;8.85;81.20
25947;BME280;13745;51.470;9.894;2024-03-22T05:09:28;99584.16;;;8.85;81.46
25947;BME280;13745;51.470;9.894;2024-03-22T05:12:16;99572.13;;;8.87;81.27
25947;BME280;13745;51.470;9.894;2024-03-22T05:15:00;99564.38;;;8.84;81.52
25947;BME280;13745;51.470;9.894;2024-03-22T05:17:45;99561.78;;;8.84;81.06
25947;BME280;13745;51.470;9.894;2024-03-22T05:20:28;99558.34;;;8.86;81.60
25947;BME280;13745;51.470;9.894;2024-03-22T05:23:13;99562.63;;;8.84;81.50
25947;BME280;13745;51.470;9.894;2024-03-22T05:26:01;99555.75;;;8.86;81.35
25947;BME280;13745;51.470;9.894;2024-03-22T05:28:45;99556.63;;;8.87;81.48
25947;BME280;13745;51.470;9.894;2024-03-22T05:31:30;99554.84;;;8.92;81.57
25947;BME280;13745;51.470;9.894;2024-03-22T05:34:14;99547.94;;;8.98;81.78
25947;BME280;13745;51.470;9.894;2024-03-22T05:37:00;99542.75;;;9.01;81.42
25947;BME280;13745;51.470;9.894;2024-03-22T05:39:44;99532.41;;;9.06;81.36
25947;BME280;13745;51.470;9.894;2024-03-22T05:42:30;99527.22;;;9.12;81.58
25947;BME280;13745;51.470;9.894;2024-03-22T05:45:14;99528.91;;;9.15;81.72
25947;BME280;13745;51.470;9.894;2024-03-22T05:48:00;99526.28;;;9.21;81.78
25947;BME280;13745;51.470;9.894;2024-03-22T05:50:44;99512.44;;;9.26;81.64
25947;BME280;13745;51.470;9.894;2024-03-22T05:53:29;99516.72;;;9.32;81.70
25947;BME280;13745;51.470;9.894;2024-03-22T05:56:13;99517.53;;;9.42;81.44
25947;BME280;13745;51.470;9.894;2024-03-22T05:59:00;99511.44;;;9.53;81.75
25947;BME280;13745;51.470;9.894;2024-03-22T06:01:44;99518.22;;;9.65;81.58
25947;BME280;13745;51.470;9.894;2024-03-22T06:04:29;99521.63;;;9.76;81.54
25947;BME280;13745;51.470;9.894;2024-03-22T06:07:13;99516.34;;;9.87;81.03
25947;BME280;13745;51.470;9.894;2024-03-22T06:10:00;99517.97;;;9.97;81.50
25947;BME280;13745;51.470;9.894;2024-03-22T06:12:44;99506.66;;;10.07;80.98
25947;BME280;13745;51.470;9.894;2024-03-22T06:15:32;99510.00;;;10.17;80.70
25947;BME280;13745;51.470;9.894;2024-03-22T06:18:17;99513.41;;;10.25;80.70
25947;BME280;13745;51.470;9.894;2024-03-22T06:21:01;99515.09;;;10.31;80.47
25947;BME280;13745;51.470;9.894;2024-03-22T06:23:48;99511.63;;;10.35;80.42
25947;BME280;13745;51.470;9.894;2024-03-22T06:26:33;99502.06;;;10.38;80.20
25947;BME280;13745;51.470;9.894;2024-03-22T06:29:17;99496.03;;;10.38;80.35
25947;BME280;13745;51.470;9.894;2024-03-22T06:32:05;99502.97;;;10.36;80.33
25947;BME280;13745;51.470;9.894;2024-03-22T06:34:49;99500.38;;;10.36;80.32
25947;BME280;13745;51.470;9.894;2024-03-22T06:37:34;99502.09;;;10.37;80.19
25947;BME280;13745;51.470;9.894;2024-03-22T06:40:18;99506.34;;;10.41;79.94
25947;BME280;13745;51.470;9.894;2024-03-22T06:43:03;99502.84;;;10.47;79.99
25947;BME280;13745;51.470;9.894;2024-03-22T06:45:47;99495.88;;;10.53;80.04
25947;BME280;13745;51.470;9.894;2024-03-22T06:48:34;99493.19;;;10.61;79.72
25947;BME280;13745;51.470;9.894;2024-03-22T06:51:18;99495.66;;;10.72;79.40
25947;BME280;13745;51.470;9.894;2024-03-22T06:54:03;99497.25;;;10.82;79.52
25947;BME280;13745;51.470;9.894;2024-03-22T06:56:49;99488.47;;;10.92;79.12
25947;BME280;13745;51.470;9.894;2024-03-22T06:59:33;99490.09;;;11.01;78.97
25947;BME280;13745;51.470;9.894;2024-03-22T07:02:18;99488.25;;;11.10;78.89
25947;BME280;13745;51.470;9.894;2024-03-22T07:05:04;99474.25;;;11.20;78.49
25947;BME280;13745;51.470;9.894;2024-03-22T07:07:50;99470.59;;;11.32;78.24
25947;BME280;13745;51.470;9.894;2024-03-22T07:10:38;99472.16;;;11.45;77.78
25947;BME280;13745;51.470;9.894;2024-03-22T07:13:23;99471.06;;;11.60;77.49
25947;BME280;13745;51.470;9.894;2024-03-22T07:16:07;99467.38;;;11.72;77.30
25947;BME280;13745;51.470;9.894;2024-03-22T07:18:52;99468.88;;;11.88;77.19
25947;BME280;13745;51.470;9.894;2024-03-22T07:21:37;99470.34;;;12.03;76.74
25947;BME280;13745;51.470;9.894;2024-03-22T07:24:22;99473.56;;;12.17;76.49
25947;BME280;13745;51.470;9.894;2024-03-22T07:27:07;99476.75;;;12.31;76.11
25947;BME280;13745;51.470;9.894;2024-03-22T07:29:52;99464.50;;;12.38;75.99
25947;BME280;13745;51.470;9.894;2024-03-22T07:32:36;99460.91;;;12.45;75.99
25947;BME280;13745;51.470;9.894;2024-03-22T07:35:22;99455.47;;;12.56;75.72
25947;BME280;13745;51.470;9.894;2024-03-22T07:38:10;99457.97;;;12.62;75.65
25947;BME280;13745;51.470;9.894;2024-03-22T07:40:55;99463.78;;;12.73;75.46
25947;BME280;13745;51.470;9.894;2024-03-22T07:43:39;99465.16;;;12.89;75.02
25947;BME280;13745;51.470;9.894;2024-03-22T07:46:24;99463.91;;;13.07;74.79
25947;BME280;13745;51.470;9.894;2024-03-22T07:49:08;99461.00;;;13.23;74.37
25947;BME280;13745;51.470;9.894;2024-03-22T07:51:53;99465.09;;;13.34;74.05
25947;BME280;13745;51.470;9.894;2024-03-22T07:54:38;99455.22;;;13.47;73.72
25947;BME280;13745;51.470;9.894;2024-03-22T07:57:23;99451.72;;;13.48;73.42
25947;BME280;13745;51.470;9.894;2024-03-22T08:00:09;99461.38;;;13.44;73.59
25947;BME280;13745;51.470;9.894;2024-03-22T08:02:57;99454.59;;;13.37;73.60
25947;BME280;13745;51.470;9.894;2024-03-22T08:05:43;99465.91;;;13.36;73.72
25947;BME280;13745;51.470;9.894;2024-03-22T08:08:27;99459.13;;;13.29;73.55
25947;BME280;13745;51.470;9.894;2024-03-22T08:11:13;99452.25;;;13.27;73.27
25947;BME280;13745;51.470;9.894;2024-03-22T08:13:57;99444.34;;;13.30;73.37
25947;BME280;13745;51.470;9.894;2024-03-22T08:16:47;99447.59;;;13.39;73.29
25947;BME280;13745;51.470;9.894;2024-03-22T08:19:31;99449.97;;;13.48;73.02
25947;BME280;13745;51.470;9.894;2024-03-22T08:22:16;99437.38;;;13.67;72.79
25947;BME280;13745;51.470;9.894;2024-03-22T08:25:00;99429.84;;;13.91;71.89
25947;BME280;13745;51.470;9.894;2024-03-22T08:27:47;99430.25;;;14.06;71.86
25947;BME280;13745;51.470;9.894;2024-03-22T08:30:33;99422.22;;;14.16;71.49
25947;BME280;13745;51.470;9.894;2024-03-22T08:33:18;99418.66;;;14.18;71.64
25947;BME280;13745;51.470;9.894;2024-03-22T08:36:04;99418.56;;;14.21;71.58
25947;BME280;13745;51.470;9.894;2024-03-22T08:38:48;99420.03;;;14.31;71.44
25947;BME280;13745;51.470;9.894;2024-03-22T08:41:33;99411.78;;;14.47;71.01
25947;BME280;13745;51.470;9.894;2024-03-22T08:44:18;99400.00;;;14.65;70.53
25947;BME280;13745;51.470;9.894;2024-03-22T08:47:04;99395.75;;;14.88;69.77
25947;BME280;13745;51.470;9.894;2024-03-22T08:49:48;99391.94;;;15.00;69.70
25947;BME280;13745;51.470;9.894;2024-03-22T08:52:33;99387.53;;;15.02;69.34
25947;BME280;13745;51.470;9.894;2024-03-22T08:55:19;99384.84;;;15.04;69.26
25947;BME280;13745;51.470;9.894;2024-03-22T08:58:04;99386.63;;;15.03;69.79
25947;BME280;13745;51.470;9.894;2024-03-22T09:00:50;99378.44;;;14.86;69.70
25947;BME280;13745;51.470;9.894;2024-03-22T09:03:36;99379.78;;;14.71;69.85
25947;BME280;13745;51.470;9.894;2024-03-22T09:06:20;99378.06;;;14.70;70.18
25947;BME280;13745;51.470;9.894;2024-03-22T09:09:05;99372.84;;;14.70;70.34
25947;BME280;13745;51.470;9.894;2024-03-22T09:11:52;99369.28;;;14.73;69.96
25947;BME280;13745;51.470;9.894;2024-03-22T09:14:36;99348.38;;;14.74;70.11
25947;BME280;13745;51.470;9.894;2024-03-22T09:17:23;99367.44;;;14.76;70.00
25947;BME280;13745;51.470;9.894;2024-03-22T09:20:09;99349.38;;;14.70;70.13
25947;BME280;13745;51.470;9.894;2024-03-22T09:22:54;99349.53;;;14.64;70.10
25947;BME280;13745;51.470;9.894;2024-03-22T09:25:37;99337.91;;;14.46;70.49
25947;BME280;13745;51.470;9.894;2024-03-22T09:28:23;99341.41;;;14.45;70.74
25947;BME280;13745;51.470;9.894;2024-03-22T09:31:06;99352.53;;;14.52;70.57
25947;BME280;13745;51.470;9.894;2024-03-22T09:33:53;99344.59;;;14.55;70.63
25947;BME280;13745;51.470;9.894;2024-03-22T09:36:38;99346.28;;;14.57;70.38
25947;BME280;13745;51.470;9.894;2024-03-22T09:39:24;99337.72;;;14.52;70.24
25947;BME280;13745;51.470;9.894;2024-03-22T09:42:09;99331.06;;;14.42;70.87
25947;BME280;13745;51.470;9.894;2024-03-22T09:44:57;99339.28;;;14.28;71.22
25947;BME280;13745;51.470;9.894;2024-03-22T09:47:41;99343.78;;;14.23;71.24
25947;BME280;13745;51.470;9.894;2024-03-22T09:50:29;99331.69;;;14.21;71.40
25947;BME280;13745;51.470;9.894;2024-03-22T09:53:13;99331.56;;;14.25;71.26
25947;BME280;13745;51.470;9.894;2024-03-22T09:56:03;99327.09;;;14.29;71.09
25947;BME280;13745;51.470;9.894;2024-03-22T09:58:47;99323.59;;;14.30;71.14
25947;BME280;13745;51.470;9.894;2024-03-22T10:01:33;99322.66;;;14.32;71.12
25947;BME280;13745;51.470;9.894;2024-03-22T10:04:18;99311.16;;;14.38;71.14
25947;BME280;13745;51.470;9.894;2024-03-22T10:07:05;99328.31;;;14.48;70.83
25947;BME280;13745;51.470;9.894;2024-03-22T10:09:51;99321.81;;;14.61;70.92
25947;BME280;13745;51.470;9.894;2024-03-22T10:12:36;99317.28;;;14.95;70.38
25947;BME280;13745;51.470;9.894;2024-03-22T10:15:23;99320.91;;;15.17;69.70
25947;BME280;13745;51.470;9.894;2024-03-22T10:18:09;99312.97;;;15.20;69.30
25947;BME280;13745;51.470;9.894;2024-03-22T10:20:59;99308.59;;;15.21;69.38
25947;BME280;13745;51.470;9.894;2024-03-22T10:23:46;99306.81;;;15.23;69.41
25947;BME280;13745;51.470;9.894;2024-03-22T10:26:32;99318.13;;;15.22;69.67
25947;BME280;13745;51.470;9.894;2024-03-22T10:29:17;99304.44;;;15.15;69.73
25947;BME280;13745;51.470;9.894;2024-03-22T10:32:02;99314.78;;;15.18;70.08
25947;BME280;13745;51.470;9.894;2024-03-22T10:34:46;99296.72;;;15.37;69.38
25947;BME280;13745;51.470;9.894;2024-03-22T10:37:33;99293.22;;;15.63;68.98
25947;BME280;13745;51.470;9.894;2024-03-22T10:40:20;99288.44;;;15.76;68.49
25947;BME280;13745;51.470;9.894;2024-03-22T10:43:05;99287.19;;;15.86;67.99
25947;BME280;13745;51.470;9.894;2024-03-22T10:45:51;99275.75;;;15.88;68.11
25947;BME280;13745;51.470;9.894;2024-03-22T10:48:40;99282.66;;;15.91;67.95
25947;BME280;13745;51.470;9.894;2024-03-22T10:51:27;99272.63;;;15.79;68.02
25947;BME280;13745;51.470;9.894;2024-03-22T10:54:17;99281.22;;;15.82;68.23
25947;BME280;13745;51.470;9.894;2024-03-22T10:57:06;99272.84;;;15.97;67.97
25947;BME280;13745;51.470;9.894;2024-03-22T10:59:54;99252.47;;;16.06;67.92
25947;BME280;13745;51.470;9.894;2024-03-22T11:02:43;99262.69;;;16.12;67.31
25947;BME280;13745;51.470;9.894;2024-03-22T11:05:27;99248.81;;;16.10;67.79
25947;BME280;13745;51.470;9.894;2024-03-22T11:08:12;99241.69;;;16.13;67.77
25947;BME280;13745;51.470;9.894;2024-03-22T11:10:57;99243.19;;;16.20;67.49
25947;BME280;13745;51.470;9.894;2024-03-22T11:13:46;99239.72;;;16.20;67.17
25947;BME280;13745;51.470;9.894;2024-03-22T11:16:30;99226.69;;;16.18;67.19
25947;BME280;13745;51.470;9.894;2024-03-22T11:19:16;99231.88;;;16.20;67.47
25947;BME280;13745;51.470;9.894;2024-03-22T11:22:00;99225.00;;;16.17;67.47
25947;BME280;13745;51.470;9.894;2024-03-22T11:24:46;99209.06;;;16.23;67.31
25947;BME280;13745;51.470;9.894;2024-03-22T11:27:30;99208.63;;;16.34;66.98
25947;BME280;13745;51.470;9.894;2024-03-22T11:30:17;99202.06;;;16.46;66.90
25947;BME280;13745;51.470;9.894;2024-03-22T11:33:01;99197.44;;;16.74;66.16
25947;BME280;13745;51.470;9.894;2024-03-22T11:35:47;99191.81;;;17.04;65.33
25947;BME280;13745;51.470;9.894;2024-03-22T11:38:32;99195.63;;;17.77;64.10
25947;BME280;13745;51.470;9.894;2024-03-22T11:41:18;99183.25;;;18.71;62.47
25947;BME280;13745;51.470;9.894;2024-03-22T11:44:04;99184.25;;;19.21;61.23
25947;BME280;13745;51.470;9.894;2024-03-22T11:46:51;99178.19;;;19.19;60.88
25947;BME280;13745;51.470;9.894;2024-03-22T11:49:36;99171.69;;;19.26;60.95
25947;BME280;13745;51.470;9.894;2024-03-22T11:52:24;99166.84;;;19.18;60.79
25947;BME280;13745;51.470;9.894;2024-03-22T11:55:09;99174.91;;;18.98;61.10
25947;BME280;13745;51.470;9.894;2024-03-22T11:57:57;99164.94;;;18.70;61.75
25947;BME280;13745;51.470;9.894;2024-03-22T12:00:41;99155.63;;;18.45;62.27
25947;BME280;13745;51.470;9.894;2024-03-22T12:03:28;99153.69;;;18.49;62.28
25947;BME280;13745;51.470;9.894;2024-03-22T12:06:13;99149.75;;;19.27;60.77
25947;BME280;13745;51.470;9.894;2024-03-22T12:08:59;99143.66;;;19.59;59.78
25947;BME280;13745;51.470;9.894;2024-03-22T12:11:43;99137.34;;;19.13;60.66
25947;BME280;13745;51.470;9.894;2024-03-22T12:14:28;99135.63;;;18.60;61.25
25947;BME280;13745;51.470;9.894;2024-03-22T12:17:12;99124.91;;;18.30;61.89
25947;BME280;13745;51.470;9.894;2024-03-22T12:19:59;99127.94;;;18.74;60.93
25947;BME280;13745;51.470;9.894;2024-03-22T12:22:43;99115.81;;;20.18;58.32
25947;BME280;13745;51.470;9.894;2024-03-22T12:25:28;99107.25;;;20.15;58.37
25947;BME280;13745;51.470;9.894;2024-03-22T12:28:12;99106.22;;;20.63;57.55
25947;BME280;13745;51.470;9.894;2024-03-22T12:30:58;99098.19;;;20.51;58.17
25947;BME280;13745;51.470;9.894;2024-03-22T12:33:42;99099.75;;;20.23;58.09
25947;BME280;13745;51.470;9.894;2024-03-22T12:36:28;99084.75;;;19.93;58.07
25947;BME280;13745;51.470;9.894;2024-03-22T12:39:12;99086.88;;;19.55;58.85
25947;BME280;13745;51.470;9.894;2024-03-22T12:41:58;99085.56;;;19.31;59.37
25947;BME280;13745;51.470;9.894;2024-03-22T12:44:43;99092.66;;;19.13;59.71
25947;BME280;13745;51.470;9.894;2024-03-22T12:47:28;99083.97;;;18.95;60.28
25947;BME280;13745;51.470;9.894;2024-03-22T12:50:14;99095.41;;;18.77;60.48
25947;BME280;13745;51.470;9.894;2024-03-22T12:53:00;99086.00;;;18.56;60.95
25947;BME280;13745;51.470;9.894;2024-03-22T12:55:45;99085.38;;;18.33;61.00
25947;BME280;13745;51.470;9.894;2024-03-22T12:58:29;99089.47;;;18.21;61.46
25947;BME280;13745;51.470;9.894;2024-03-22T13:01:14;99078.78;;;18.24;61.40
25947;BME280;13745;51.470;9.894;2024-03-22T13:03:58;99080.88;;;18.35;61.07
25947;BME280;13745;51.470;9.894;2024-03-22T13:06:43;99077.78;;;18.44;60.62
25947;BME280;13745;51.470;9.894;2024-03-22T13:09:29;99084.22;;;18.56;60.86
25947;BME280;13745;51.470;9.894;2024-03-22T13:12:14;99070.25;;;18.56;60.84
25947;BME280;13745;51.470;9.894;2024-03-22T13:14:58;99071.69;;;18.44;61.04
25947;BME280;13745;51.470;9.894;2024-03-22T13:17:43;99061.75;;;18.33;61.19
25947;BME280;13745;51.470;9.894;2024-03-22T13:20:26;99065.47;;;18.29;61.56
25947;BME280;13745;51.470;9.894;2024-03-22T13:23:11;99065.84;;;18.21;61.09
25947;BME280;13745;51.470;9.894;2024-03-22T13:26:02;99062.88;;;18.10;61.47
25947;BME280;13745;51.470;9.894;2024-03-22T13:28:48;99056.41;;;18.00;61.42
25947;BME280;13745;51.470;9.894;2024-03-22T13:31:32;99051.97;;;17.83;61.67
25947;BME280;13745;51.470;9.894;2024-03-22T13:34:17;99047.25;;;17.73;62.22
25947;BME280;13745;51.470;9.894;2024-03-22T13:37:01;99042.41;;;17.63;62.52
25947;BME280;13745;51.470;9.894;2024-03-22T13:39:48;99040.28;;;17.53;62.60
25947;BME280;13745;51.470;9.894;2024-03-22T13:42:34;99027.50;;;17.47;62.60
25947;BME280;13745;51.470;9.894;2024-03-22T13:45:19;99026.16;;;17.38;62.84
25947;BME280;13745;51.470;9.894;2024-03-22T13:48:10;99025.84;;;17.25;62.90
25947;BME280;13745;51.470;9.894;2024-03-22T13:50:57;99019.34;;;17.15;63.37
25947;BME280;13745;51.470;9.894;2024-03-22T13:53:42;99020.69;;;17.05;63.34
25947;BME280;13745;51.470;9.894;2024-03-22T13:56:27;99029.75;;;16.98;63.51
25947;BME280;13745;51.470;9.894;2024-03-22T13:59:14;99022.16;;;16.92;63.87
25947;BME280;13745;51.470;9.894;2024-03-22T14:02:00;99018.84;;;16.88;63.81
25947;BME280;13745;51.470;9.894;2024-03-22T14:04:44;99009.56;;;16.81;64.04
25947;BME280;13745;51.470;9.894;2024-03-22T14:07:29;99005.34;;;16.77;64.17
25947;BME280;13745;51.470;9.894;2024-03-22T14:10:13;99006.47;;;16.71;64.63
25947;BME280;13745;51.470;9.894;2024-03-22T14:13:00;99003.19;;;16.66;65.00
25947;BME280;13745;51.470;9.894;2024-03-22T14:15:45;98992.00;;;16.63;65.22
25947;BME280;13745;51.470;9.894;2024-03-22T14:18:30;98994.91;;;16.56;65.07
25947;BME280;13745;51.470;9.894;2024-03-22T14:21:14;98996.94;;;16.50;65.26
25947;BME280;13745;51.470;9.894;2024-03-22T14:24:03;99005.97;;;16.43;65.48
25947;BME280;13745;51.470;9.894;2024-03-22T14:26:48;99002.91;;;16.33;65.74
25947;BME280;13745;51.470;9.894;2024-03-22T14:29:34;99009.31;;;16.26;66.03
25947;BME280;13745;51.470;9.894;2024-03-22T14:32:19;99009.44;;;16.23;66.11
25947;BME280;13745;51.470;9.894;2024-03-22T14:35:05;98994.84;;;16.17;66.10
25947;BME280;13745;51.470;9.894;2024-03-22T14:37:49;98989.69;;;16.16;66.65
25947;BME280;13745;51.470;9.894;2024-03-22T14:40:37;98978.25;;;16.18;66.74